sensor_id;sensor_type;location;lat;lon;timestamp;pressure;altitude;pressure_sealevel;temperature;humidity
60589;BME280;46421;48.610;9.334;2023-02-10T00:01:10;99901.81;;;-4.35;89.02
60589;BME280;46421;48.610;9.334;2023-02-10T00:03:37;99902.31;;;-4.94;88.72
60589;BME280;46421;48.610;9.334;2023-02-10T00:06:04;99898.25;;;-4.29;86.98
60589;BME280;46421;48.610;9.334;2023-02-10T00:08:29;99898.03;;;-3.85;83.18
60589;BME280;46421;48.610;9.334;2023-02-10T00:10:59;99898.16;;;-3.57;82.05
60589;BME280;46421;48.610;9.334;2023-02-10T00:13:26;99895.78;;;-3.99;85.67
60589;BME280;46421;48.610;9.334;2023-02-10T00:15:52;99895.19;;;-4.84;86.45
60589;BME280;46421;48.610;9.334;2023-02-10T00:18:17;99903.53;;;-5.12;91.12
60589;BME280;46421;48.610;9.334;2023-02-10T00:20:43;99910.53;;;-5.14;90.40
60589;BME280;46421;48.610;9.334;2023-02-10T00:23:08;99893.53;;;-4.87;90.82
60589;BME280;46421;48.610;9.334;2023-02-10T00:25:35;99889.09;;;-4.46;87.50
60589;BME280;46421;48.610;9.334;2023-02-10T00:28:02;99886.41;;;-4.05;85.25
60589;BME280;46421;48.610;9.334;2023-02-10T00:30:27;99882.47;;;-4.57;85.56
60589;BME280;46421;48.610;9.334;2023-02-10T00:32:52;99877.78;;;-4.43;86.36
60589;BME280;46421;48.610;9.334;2023-02-10T00:35:18;99889.88;;;-5.20;88.89
60589;BME280;46421;48.610;9.334;2023-02-10T00:37:43;99890.00;;;-5.27;91.06
60589;BME280;46421;48.610;9.334;2023-02-10T00:40:09;99895.59;;;-4.64;89.19
60589;BME280;46421;48.610;9.334;2023-02-10T00:42:34;99886.22;;;-4.33;86.10
60589;BME280;46421;48.610;9.334;2023-02-10T00:45:00;99872.59;;;-4.07;85.59
60589;BME280;46421;48.610;9.334;2023-02-10T00:47:25;99887.69;;;-3.87;83.60
60589;BME280;46421;48.610;9.334;2023-02-10T00:49:51;99890.84;;;-4.84;87.47
60589;BME280;46421;48.610;9.334;2023-02-10T00:52:17;99899.38;;;-5.19;89.48
60589;BME280;46421;48.610;9.334;2023-02-10T00:54:43;99902.31;;;-5.36;90.88
60589;BME280;46421;48.610;9.334;2023-02-10T00:57:08;99906.19;;;-5.59;90.98
60589;BME280;46421;48.610;9.334;2023-02-10T00:59:33;99897.84;;;-5.75;91.76
60589;BME280;46421;48.610;9.334;2023-02-10T01:01:59;99908.38;;;-5.84;93.19
60589;BME280;46421;48.610;9.334;2023-02-10T01:04:24;99904.53;;;-5.62;93.80
60589;BME280;46421;48.610;9.334;2023-02-10T01:06:49;99918.78;;;-4.97;90.27
60589;BME280;46421;48.610;9.334;2023-02-10T01:09:15;99920.78;;;-5.55;90.49
60589;BME280;46421;48.610;9.334;2023-02-10T01:11:40;99916.97;;;-5.82;92.08
60589;BME280;46421;48.610;9.334;2023-02-10T01:14:05;99927.88;;;-5.65;92.29
60589;BME280;46421;48.610;9.334;2023-02-10T01:16:31;99929.88;;;-5.32;92.32
60589;BME280;46421;48.610;9.334;2023-02-10T01:18:58;99935.22;;;-5.89;92.85
60589;BME280;46421;48.610;9.334;2023-02-10T01:21:24;99927.56;;;-5.48;91.37
60589;BME280;46421;48.610;9.334;2023-02-10T01:23:49;99920.59;;;-5.44;91.56
60589;BME280;46421;48.610;9.334;2023-02-10T01:26:15;99923.09;;;-4.96;88.93
60589;BME280;46421;48.610;9.334;2023-02-10T01:28:41;99926.72;;;-4.64;86.16
60589;BME280;46421;48.610;9.334;2023-02-10T01:31:08;99924.88;;;-4.58;86.66
60589;BME280;46421;48.610;9.334;2023-02-10T01:33:34;99917.28;;;-4.29;86.05
60589;BME280;46421;48.610;9.334;2023-02-10T01:36:08;99924.47;;;-5.20;87.82
60589;BME280;46421;48.610;9.334;2023-02-10T01:38:33;99921.53;;;-5.48;89.21
60589;BME280;46421;48.610;9.334;2023-02-10T01:40:59;99924.69;;;-5.79;91.58
60589;BME280;46421;48.610;9.334;2023-02-10T01:43:24;99924.19;;;-5.06;89.89
60589;BME280;46421;48.610;9.334;2023-02-10T01:45:50;99923.38;;;-5.53;88.55
60589;BME280;46421;48.610;9.334;2023-02-10T01:48:15;99904.84;;;-5.80;91.09
60589;BME280;46421;48.610;9.334;2023-02-10T01:50:51;99939.66;;;-5.97;88.33
60589;BME280;46421;48.610;9.334;2023-02-10T01:53:17;99938.97;;;-6.04;91.59
60589;BME280;46421;48.610;9.334;2023-02-10T01:55:45;99935.47;;;-6.03;91.12
60589;BME280;46421;48.610;9.334;2023-02-10T01:58:15;99940.78;;;-6.10;92.09
60589;BME280;46421;48.610;9.334;2023-02-10T02:00:43;99917.94;;;-5.41;90.31
60589;BME280;46421;48.610;9.334;2023-02-10T02:03:08;99923.41;;;-5.11;88.17
60589;BME280;46421;48.610;9.334;2023-02-10T02:05:37;99924.06;;;-5.00;87.50
60589;BME280;46421;48.610;9.334;2023-02-10T02:08:23;99907.78;;;-5.52;90.08
60589;BME280;46421;48.610;9.334;2023-02-10T02:11:09;99909.91;;;-5.73;91.16
60589;BME280;46421;48.610;9.334;2023-02-10T02:16:15;99911.44;;;-4.76;87.00
60589;BME280;46421;48.610;9.334;2023-02-10T02:24:07;99920.00;;;-6.06;90.00
60589;BME280;46421;48.610;9.334;2023-02-10T02:27:09;99921.25;;;-6.30;91.04
60589;BME280;46421;48.610;9.334;2023-02-10T02:32:21;99916.81;;;-6.23;92.28
60589;BME280;46421;48.610;9.334;2023-02-10T02:37:47;99934.09;;;-6.25;91.96
60589;BME280;46421;48.610;9.334;2023-02-10T02:40:16;99934.31;;;-6.38;93.17
60589;BME280;46421;48.610;9.334;2023-02-10T02:42:41;99933.72;;;-6.57;93.66
60589;BME280;46421;48.610;9.334;2023-02-10T02:45:15;99942.63;;;-6.18;94.59
60589;BME280;46421;48.610;9.334;2023-02-10T02:50:49;99961.25;;;-5.98;90.04
60589;BME280;46421;48.610;9.334;2023-02-10T02:53:25;99963.34;;;-6.18;91.47
60589;BME280;46421;48.610;9.334;2023-02-10T02:56:01;99946.47;;;-6.43;92.36
60589;BME280;46421;48.610;9.334;2023-02-10T03:00:58;99947.59;;;-6.05;91.62
60589;BME280;46421;48.610;9.334;2023-02-10T03:03:30;99947.28;;;-5.39;90.14
60589;BME280;46421;48.610;9.334;2023-02-10T03:05:58;99969.56;;;-5.79;87.17
60589;BME280;46421;48.610;9.334;2023-02-10T03:08:23;99972.06;;;-6.23;89.98
60589;BME280;46421;48.610;9.334;2023-02-10T03:10:48;99969.66;;;-6.37;90.27
60589;BME280;46421;48.610;9.334;2023-02-10T03:13:14;99965.34;;;-6.34;88.46
60589;BME280;46421;48.610;9.334;2023-02-10T03:15:39;99967.75;;;-6.24;89.44
60589;BME280;46421;48.610;9.334;2023-02-10T03:18:05;99964.34;;;-6.29;90.06
60589;BME280;46421;48.610;9.334;2023-02-10T03:20:30;99972.47;;;-6.52;90.98
60589;BME280;46421;48.610;9.334;2023-02-10T03:22:55;99973.53;;;-6.67;91.83
60589;BME280;46421;48.610;9.334;2023-02-10T03:25:21;99977.31;;;-6.93;91.82
60589;BME280;46421;48.610;9.334;2023-02-10T03:27:46;99964.31;;;-6.87;92.57
60589;BME280;46421;48.610;9.334;2023-02-10T03:30:11;99976.59;;;-7.04;93.09
60589;BME280;46421;48.610;9.334;2023-02-10T03:32:37;99972.16;;;-6.30;92.51
60589;BME280;46421;48.610;9.334;2023-02-10T03:35:02;99978.00;;;-6.17;89.06
60589;BME280;46421;48.610;9.334;2023-02-10T03:37:27;99980.75;;;-6.27;90.03
60589;BME280;46421;48.610;9.334;2023-02-10T03:39:53;99980.09;;;-6.41;91.72
60589;BME280;46421;48.610;9.334;2023-02-10T03:42:18;99987.09;;;-6.49;91.40
60589;BME280;46421;48.610;9.334;2023-02-10T03:44:43;99975.13;;;-6.57;90.87
60589;BME280;46421;48.610;9.334;2023-02-10T03:47:09;99984.53;;;-5.95;89.50
60589;BME280;46421;48.610;9.334;2023-02-10T03:49:34;99977.34;;;-5.79;86.74
60589;BME280;46421;48.610;9.334;2023-02-10T03:51:59;99979.53;;;-5.54;87.51
60589;BME280;46421;48.610;9.334;2023-02-10T03:54:25;99983.78;;;-5.51;85.37
60589;BME280;46421;48.610;9.334;2023-02-10T03:56:50;99988.28;;;-6.11;87.72
60589;BME280;46421;48.610;9.334;2023-02-10T03:59:15;99992.88;;;-6.30;89.70
60589;BME280;46421;48.610;9.334;2023-02-10T04:01:41;99984.09;;;-5.20;84.36
60589;BME280;46421;48.610;9.334;2023-02-10T04:04:06;99983.06;;;-5.58;83.76
60589;BME280;46421;48.610;9.334;2023-02-10T04:06:31;99983.22;;;-6.19;88.69
60589;BME280;46421;48.610;9.334;2023-02-10T04:08:57;99988.91;;;-6.55;88.89
60589;BME280;46421;48.610;9.334;2023-02-10T04:11:22;99990.13;;;-6.82;90.96
60589;BME280;46421;48.610;9.334;2023-02-10T04:13:47;99995.38;;;-6.90;92.20
60589;BME280;46421;48.610;9.334;2023-02-10T04:16:14;99985.22;;;-7.07;92.99
60589;BME280;46421;48.610;9.334;2023-02-10T04:18:41;99987.59;;;-6.87;92.48
60589;BME280;46421;48.610;9.334;2023-02-10T04:21:09;99981.13;;;-6.56;92.06
60589;BME280;46421;48.610;9.334;2023-02-10T04:23:35;99995.25;;;-6.16;91.00
60589;BME280;46421;48.610;9.334;2023-02-10T04:26:01;99989.78;;;-6.56;90.20
60589;BME280;46421;48.610;9.334;2023-02-10T04:28:26;99995.22;;;-6.79;91.01
60589;BME280;46421;48.610;9.334;2023-02-10T04:30:57;99992.59;;;-6.73;92.32
60589;BME280;46421;48.610;9.334;2023-02-10T04:33:24;99985.84;;;-6.85;93.13
60589;BME280;46421;48.610;9.334;2023-02-10T04:35:51;99980.75;;;-6.92;93.17
60589;BME280;46421;48.610;9.334;2023-02-10T04:38:18;99983.19;;;-6.81;92.53
60589;BME280;46421;48.610;9.334;2023-02-10T04:40:43;99987.59;;;-6.90;92.67
60589;BME280;46421;48.610;9.334;2023-02-10T04:43:12;99992.00;;;-6.95;92.63
60589;BME280;46421;48.610;9.334;2023-02-10T04:45:38;99991.03;;;-6.88;93.75
60589;BME280;46421;48.610;9.334;2023-02-10T04:48:04;99984.75;;;-6.67;92.74
60589;BME280;46421;48.610;9.334;2023-02-10T04:50:31;99993.91;;;-6.42;89.44
60589;BME280;46421;48.610;9.334;2023-02-10T04:52:56;99995.19;;;-6.13;89.25
60589;BME280;46421;48.610;9.334;2023-02-10T04:55:22;100002.34;;;-5.75;87.41
60589;BME280;46421;48.610;9.334;2023-02-10T04:57:47;99968.34;;;-6.67;88.22
60589;BME280;46421;48.610;9.334;2023-02-10T05:00:14;100001.38;;;-6.88;89.68
60589;BME280;46421;48.610;9.334;2023-02-10T05:02:40;99994.59;;;-6.98;91.56
60589;BME280;46421;48.610;9.334;2023-02-10T05:05:05;100009.00;;;-6.74;92.37
60589;BME280;46421;48.610;9.334;2023-02-10T05:07:31;100011.69;;;-6.83;91.06
60589;BME280;46421;48.610;9.334;2023-02-10T05:09:56;100023.00;;;-6.93;89.69
60589;BME280;46421;48.610;9.334;2023-02-10T05:12:22;100016.09;;;-6.94;90.39
60589;BME280;46421;48.610;9.334;2023-02-10T05:14:47;100016.38;;;-7.18;90.84
60589;BME280;46421;48.610;9.334;2023-02-10T05:17:12;100019.66;;;-7.00;92.96
60589;BME280;46421;48.610;9.334;2023-02-10T05:19:38;100012.91;;;-7.18;92.28
60589;BME280;46421;48.610;9.334;2023-02-10T05:22:04;100018.03;;;-7.13;91.21
60589;BME280;46421;48.610;9.334;2023-02-10T05:24:29;100014.81;;;-7.33;92.48
60589;BME280;46421;48.610;9.334;2023-02-10T05:26:54;100025.75;;;-7.09;92.18
60589;BME280;46421;48.610;9.334;2023-02-10T05:29:19;100016.41;;;-7.19;92.18
60589;BME280;46421;48.610;9.334;2023-02-10T05:31:45;100032.72;;;-7.14;90.62
60589;BME280;46421;48.610;9.334;2023-02-10T05:34:10;100028.41;;;-7.15;90.91
60589;BME280;46421;48.610;9.334;2023-02-10T05:36:36;100040.16;;;-6.86;89.08
60589;BME280;46421;48.610;9.334;2023-02-10T05:39:01;100039.56;;;-7.11;89.90
60589;BME280;46421;48.610;9.334;2023-02-10T05:41:45;100032.78;;;-7.22;90.72
60589;BME280;46421;48.610;9.334;2023-02-10T05:44:10;100032.81;;;-7.25;91.45
60589;BME280;46421;48.610;9.334;2023-02-10T05:46:35;100034.66;;;-7.36;91.94
60589;BME280;46421;48.610;9.334;2023-02-10T05:49:01;100036.31;;;-7.31;92.22
60589;BME280;46421;48.610;9.334;2023-02-10T05:51:26;100039.88;;;-7.42;91.67
60589;BME280;46421;48.610;9.334;2023-02-10T05:53:52;100043.09;;;-7.16;89.43
60589;BME280;46421;48.610;9.334;2023-02-10T05:56:18;100037.78;;;-7.05;89.18
60589;BME280;46421;48.610;9.334;2023-02-10T05:58:44;100039.69;;;-7.19;89.47
60589;BME280;46421;48.610;9.334;2023-02-10T06:01:09;100042.34;;;-7.28;91.38
60589;BME280;46421;48.610;9.334;2023-02-10T06:03:35;100056.13;;;-7.29;92.03
60589;BME280;46421;48.610;9.334;2023-02-10T06:06:00;100057.81;;;-7.25;92.68
60589;BME280;46421;48.610;9.334;2023-02-10T06:08:25;100058.72;;;-7.29;92.37
60589;BME280;46421;48.610;9.334;2023-02-10T06:10:52;100066.38;;;-7.20;93.19
60589;BME280;46421;48.610;9.334;2023-02-10T06:13:17;100066.44;;;-7.28;92.17
60589;BME280;46421;48.610;9.334;2023-02-10T06:15:42;100061.75;;;-6.92;91.72
60589;BME280;46421;48.610;9.334;2023-02-10T06:18:08;100052.78;;;-6.60;88.72
60589;BME280;46421;48.610;9.334;2023-02-10T06:20:33;100070.59;;;-7.08;88.71
60589;BME280;46421;48.610;9.334;2023-02-10T06:22:59;100069.00;;;-7.23;91.53
60589;BME280;46421;48.610;9.334;2023-02-10T06:25:24;100065.44;;;-7.11;92.00
60589;BME280;46421;48.610;9.334;2023-02-10T06:27:49;100075.91;;;-7.24;91.84
60589;BME280;46421;48.610;9.334;2023-02-10T06:30:15;100081.91;;;-7.23;91.63
60589;BME280;46421;48.610;9.334;2023-02-10T06:32:40;100066.50;;;-7.33;90.54
60589;BME280;46421;48.610;9.334;2023-02-10T06:35:06;100081.09;;;-7.27;90.45
60589;BME280;46421;48.610;9.334;2023-02-10T06:37:31;100078.75;;;-7.55;92.10
60589;BME280;46421;48.610;9.334;2023-02-10T06:39:56;100093.34;;;-7.48;92.28
60589;BME280;46421;48.610;9.334;2023-02-10T06:42:22;100098.50;;;-7.49;93.29
60589;BME280;46421;48.610;9.334;2023-02-10T06:44:47;100097.63;;;-7.47;92.17
60589;BME280;46421;48.610;9.334;2023-02-10T06:47:12;100086.47;;;-7.53;92.77
60589;BME280;46421;48.610;9.334;2023-02-10T06:49:38;100097.53;;;-7.34;89.28
60589;BME280;46421;48.610;9.334;2023-02-10T06:52:03;100093.66;;;-6.91;91.43
60589;BME280;46421;48.610;9.334;2023-02-10T06:54:29;100097.41;;;-7.22;90.63
60589;BME280;46421;48.610;9.334;2023-02-10T06:56:54;100096.41;;;-7.04;89.47
60589;BME280;46421;48.610;9.334;2023-02-10T06:59:20;100110.03;;;-6.91;91.19
60589;BME280;46421;48.610;9.334;2023-02-10T07:01:46;100106.81;;;-7.13;91.21
60589;BME280;46421;48.610;9.334;2023-02-10T07:04:12;100105.88;;;-7.07;91.44
60589;BME280;46421;48.610;9.334;2023-02-10T07:06:38;100112.13;;;-6.43;88.93
60589;BME280;46421;48.610;9.334;2023-02-10T07:09:03;100115.19;;;-6.88;89.48
60589;BME280;46421;48.610;9.334;2023-02-10T07:11:30;100112.66;;;-6.94;89.97
60589;BME280;46421;48.610;9.334;2023-02-10T07:13:56;100113.47;;;-6.89;89.63
60589;BME280;46421;48.610;9.334;2023-02-10T07:16:21;100117.78;;;-6.91;89.94
60589;BME280;46421;48.610;9.334;2023-02-10T07:18:47;100107.41;;;-6.86;89.95
60589;BME280;46421;48.610;9.334;2023-02-10T07:21:12;100125.66;;;-7.02;89.61
60589;BME280;46421;48.610;9.334;2023-02-10T07:23:37;100128.09;;;-6.85;90.92
60589;BME280;46421;48.610;9.334;2023-02-10T07:26:04;100129.00;;;-6.90;90.58
60589;BME280;46421;48.610;9.334;2023-02-10T07:28:30;100118.25;;;-6.53;90.74
60589;BME280;46421;48.610;9.334;2023-02-10T07:30:55;100124.00;;;-5.11;84.02
60589;BME280;46421;48.610;9.334;2023-02-10T07:33:21;100121.56;;;-3.87;76.76
60589;BME280;46421;48.610;9.334;2023-02-10T07:35:46;100126.66;;;-2.75;70.52
60589;BME280;46421;48.610;9.334;2023-02-10T07:38:11;100128.19;;;-2.35;67.89
60589;BME280;46421;48.610;9.334;2023-02-10T07:40:37;100127.03;;;-1.66;65.06
60589;BME280;46421;48.610;9.334;2023-02-10T07:43:02;100133.78;;;-1.05;62.63
60589;BME280;46421;48.610;9.334;2023-02-10T07:45:27;100131.69;;;-0.94;60.86
60589;BME280;46421;48.610;9.334;2023-02-10T07:47:58;100135.31;;;-1.25;61.17
60589;BME280;46421;48.610;9.334;2023-02-10T07:50:25;100135.41;;;-1.28;62.53
60589;BME280;46421;48.610;9.334;2023-02-10T07:52:50;100130.66;;;-0.90;62.00
60589;BME280;46421;48.610;9.334;2023-02-10T07:55:16;100132.88;;;-0.54;61.51
60589;BME280;46421;48.610;9.334;2023-02-10T07:57:42;100142.91;;;0.30;59.35
60589;BME280;46421;48.610;9.334;2023-02-10T08:00:08;100141.63;;;0.18;59.04
60589;BME280;46421;48.610;9.334;2023-02-10T08:02:34;100141.25;;;1.15;56.78
60589;BME280;46421;48.610;9.334;2023-02-10T08:04:59;100134.91;;;2.00;54.16
60589;BME280;46421;48.610;9.334;2023-02-10T08:07:25;100144.16;;;2.28;52.59
60589;BME280;46421;48.610;9.334;2023-02-10T08:09:50;100144.09;;;2.66;52.01
60589;BME280;46421;48.610;9.334;2023-02-10T08:12:16;100144.88;;;2.85;51.43
60589;BME280;46421;48.610;9.334;2023-02-10T08:14:41;100113.44;;;3.02;50.89
60589;BME280;46421;48.610;9.334;2023-02-10T08:17:07;100129.81;;;3.42;49.81
60589;BME280;46421;48.610;9.334;2023-02-10T08:19:32;100132.31;;;4.10;49.75
60589;BME280;46421;48.610;9.334;2023-02-10T08:21:58;100125.97;;;4.15;48.81
60589;BME280;46421;48.610;9.334;2023-02-10T08:24:24;100125.75;;;4.82;48.71
60589;BME280;46421;48.610;9.334;2023-02-10T08:26:49;100130.69;;;5.47;46.43
60589;BME280;46421;48.610;9.334;2023-02-10T08:29:14;100123.16;;;5.70;46.69
60589;BME280;46421;48.610;9.334;2023-02-10T08:31:40;100131.34;;;6.65;44.21
60589;BME280;46421;48.610;9.334;2023-02-10T08:34:13;100129.81;;;6.48;43.30
60589;BME280;46421;48.610;9.334;2023-02-10T08:36:39;100130.69;;;6.34;43.98
60589;BME280;46421;48.610;9.334;2023-02-10T08:39:04;100137.97;;;7.51;41.91
60589;BME280;46421;48.610;9.334;2023-02-10T08:41:29;100132.66;;;7.90;41.85
60589;BME280;46421;48.610;9.334;2023-02-10T08:43:57;100138.09;;;7.63;40.70
60589;BME280;46421;48.610;9.334;2023-02-10T08:46:22;100135.50;;;8.13;41.44
60589;BME280;46421;48.610;9.334;2023-02-10T08:48:48;100140.28;;;8.45;40.54
60589;BME280;46421;48.610;9.334;2023-02-10T08:51:14;100147.28;;;8.46;39.09
60589;BME280;46421;48.610;9.334;2023-02-10T08:53:40;100144.38;;;8.86;37.57
60589;BME280;46421;48.610;9.334;2023-02-10T08:56:09;100139.19;;;9.67;38.54
60589;BME280;46421;48.610;9.334;2023-02-10T08:58:35;100143.97;;;9.62;38.74
60589;BME280;46421;48.610;9.334;2023-02-10T09:01:01;100136.16;;;8.78;38.59
60589;BME280;46421;48.610;9.334;2023-02-10T09:03:32;100139.25;;;9.43;37.89
60589;BME280;46421;48.610;9.334;2023-02-10T09:05:57;100135.28;;;9.48;36.76
60589;BME280;46421;48.610;9.334;2023-02-10T09:08:23;100132.75;;;9.81;38.03
60589;BME280;46421;48.610;9.334;2023-02-10T09:10:48;100138.22;;;9.21;37.97
60589;BME280;46421;48.610;9.334;2023-02-10T09:13:14;100127.75;;;9.20;36.98
60589;BME280;46421;48.610;9.334;2023-02-10T09:15:41;100139.03;;;10.25;37.12
60589;BME280;46421;48.610;9.334;2023-02-10T09:18:07;100137.25;;;10.03;37.22
60589;BME280;46421;48.610;9.334;2023-02-10T09:20:33;100135.31;;;7.51;39.93
60589;BME280;46421;48.610;9.334;2023-02-10T09:22:59;100133.06;;;8.95;38.41
60589;BME280;46421;48.610;9.334;2023-02-10T09:25:24;100123.50;;;8.57;39.98
60589;BME280;46421;48.610;9.334;2023-02-10T09:27:53;100125.78;;;10.69;36.94
60589;BME280;46421;48.610;9.334;2023-02-10T09:30:20;100127.34;;;11.26;35.36
60589;BME280;46421;48.610;9.334;2023-02-10T09:32:46;100132.63;;;11.68;34.94
60589;BME280;46421;48.610;9.334;2023-02-10T09:35:12;100128.03;;;11.70;34.16
60589;BME280;46421;48.610;9.334;2023-02-10T09:37:37;100134.31;;;10.84;34.90
60589;BME280;46421;48.610;9.334;2023-02-10T09:40:02;100128.97;;;12.21;33.63
60589;BME280;46421;48.610;9.334;2023-02-10T09:45:15;100117.19;;;10.10;35.82
60589;BME280;46421;48.610;9.334;2023-02-10T09:47:48;100122.16;;;10.70;36.25
60589;BME280;46421;48.610;9.334;2023-02-10T09:50:22;100123.56;;;12.62;33.54
60589;BME280;46421;48.610;9.334;2023-02-10T09:53:10;100135.44;;;13.75;31.97
60589;BME280;46421;48.610;9.334;2023-02-10T09:55:54;100142.91;;;13.72;32.15
60589;BME280;46421;48.610;9.334;2023-02-10T09:58:35;100127.34;;;13.18;31.67
60589;BME280;46421;48.610;9.334;2023-02-10T10:01:14;100134.97;;;12.74;32.83
60589;BME280;46421;48.610;9.334;2023-02-10T10:03:55;100132.00;;;13.26;32.07
60589;BME280;46421;48.610;9.334;2023-02-10T10:06:30;100137.97;;;12.30;34.66
60589;BME280;46421;48.610;9.334;2023-02-10T10:11:41;100138.75;;;13.20;34.30
60589;BME280;46421;48.610;9.334;2023-02-10T10:14:19;100137.84;;;14.34;32.07
60589;BME280;46421;48.610;9.334;2023-02-10T10:17:06;100138.94;;;13.76;32.06
60589;BME280;46421;48.610;9.334;2023-02-10T10:19:58;100139.75;;;13.09;33.21
60589;BME280;46421;48.610;9.334;2023-02-10T10:30:49;100119.81;;;14.36;30.96
60589;BME280;46421;48.610;9.334;2023-02-10T10:33:25;100128.84;;;14.53;30.54
60589;BME280;46421;48.610;9.334;2023-02-10T10:35:53;100107.63;;;17.04;25.08
60589;BME280;46421;48.610;9.334;2023-02-10T10:38:26;100109.31;;;17.21;25.21
60589;BME280;46421;48.610;9.334;2023-02-10T10:40:59;100114.50;;;16.82;25.56
60589;BME280;46421;48.610;9.334;2023-02-10T10:43:29;100115.38;;;18.05;25.19
60589;BME280;46421;48.610;9.334;2023-02-10T10:46:03;100107.69;;;16.36;25.42
60589;BME280;46421;48.610;9.334;2023-02-10T10:48:31;100104.78;;;17.95;24.51
60589;BME280;46421;48.610;9.334;2023-02-10T10:51:03;100099.28;;;17.72;24.79
60589;BME280;46421;48.610;9.334;2023-02-10T10:53:39;100102.16;;;16.38;25.46
60589;BME280;46421;48.610;9.334;2023-02-10T10:56:11;100097.81;;;15.94;26.92
60589;BME280;46421;48.610;9.334;2023-02-10T10:58:40;100093.50;;;18.08;23.63
60589;BME280;46421;48.610;9.334;2023-02-10T11:01:08;100087.75;;;17.54;24.19
60589;BME280;46421;48.610;9.334;2023-02-10T11:03:34;100089.50;;;16.22;25.89
60589;BME280;46421;48.610;9.334;2023-02-10T11:08:34;100091.47;;;17.45;25.14
60589;BME280;46421;48.610;9.334;2023-02-10T11:11:01;100096.50;;;17.57;24.63
60589;BME280;46421;48.610;9.334;2023-02-10T11:13:30;100087.97;;;16.87;25.09
60589;BME280;46421;48.610;9.334;2023-02-10T11:16:17;100090.63;;;20.09;21.53
60589;BME280;46421;48.610;9.334;2023-02-10T11:18:56;100082.41;;;18.02;24.40
60589;BME280;46421;48.610;9.334;2023-02-10T11:21:36;100079.00;;;18.09;24.23
60589;BME280;46421;48.610;9.334;2023-02-10T11:24:03;100076.97;;;18.97;22.82
60589;BME280;46421;48.610;9.334;2023-02-10T11:26:29;100073.16;;;19.06;21.76
60589;BME280;46421;48.610;9.334;2023-02-10T11:28:55;100071.84;;;17.84;23.30
60589;BME280;46421;48.610;9.334;2023-02-10T11:31:32;100070.28;;;18.07;23.73
60589;BME280;46421;48.610;9.334;2023-02-10T11:34:02;100076.03;;;19.88;21.54
60589;BME280;46421;48.610;9.334;2023-02-10T11:36:38;100069.41;;;18.46;22.49
60589;BME280;46421;48.610;9.334;2023-02-10T11:39:15;100068.03;;;18.19;21.62
60589;BME280;46421;48.610;9.334;2023-02-10T11:41:42;100065.78;;;19.53;21.64
60589;BME280;46421;48.610;9.334;2023-02-10T11:44:34;100068.03;;;18.73;21.94
60589;BME280;46421;48.610;9.334;2023-02-10T11:47:02;100069.16;;;19.02;20.20
60589;BME280;46421;48.610;9.334;2023-02-10T11:49:29;100068.66;;;20.12;19.96
60589;BME280;46421;48.610;9.334;2023-02-10T11:52:00;100057.13;;;21.05;18.46
60589;BME280;46421;48.610;9.334;2023-02-10T11:54:29;100051.75;;;19.28;19.87
60589;BME280;46421;48.610;9.334;2023-02-10T11:57:22;100055.47;;;19.87;19.98
60589;BME280;46421;48.610;9.334;2023-02-10T12:00:22;100049.63;;;18.54;19.37
60589;BME280;46421;48.610;9.334;2023-02-10T12:08:22;100053.34;;;18.29;22.28
60589;BME280;46421;48.610;9.334;2023-02-10T12:10:54;100047.09;;;18.29;22.56
60589;BME280;46421;48.610;9.334;2023-02-10T12:13:46;100045.97;;;19.16;20.75
60589;BME280;46421;48.610;9.334;2023-02-10T12:16:41;100047.09;;;19.37;21.29
60589;BME280;46421;48.610;9.334;2023-02-10T12:19:24;100043.16;;;19.69;20.61
60589;BME280;46421;48.610;9.334;2023-02-10T12:24:56;100036.25;;;17.74;20.91
60589;BME280;46421;48.610;9.334;2023-02-10T12:27:44;100039.94;;;17.25;21.62
60589;BME280;46421;48.610;9.334;2023-02-10T12:30:57;100035.94;;;17.69;22.26
60589;BME280;46421;48.610;9.334;2023-02-10T12:36:19;100024.84;;;16.58;21.44
60589;BME280;46421;48.610;9.334;2023-02-10T12:39:13;100021.50;;;18.56;18.92
60589;BME280;46421;48.610;9.334;2023-02-10T12:41:51;100017.13;;;16.55;20.16
60589;BME280;46421;48.610;9.334;2023-02-10T12:47:30;100004.88;;;15.42;22.45
60589;BME280;46421;48.610;9.334;2023-02-10T12:50:22;100011.41;;;16.33;21.02
60589;BME280;46421;48.610;9.334;2023-02-10T12:53:01;100005.19;;;16.90;21.02
60589;BME280;46421;48.610;9.334;2023-02-10T12:55:37;99991.28;;;16.62;21.32
60589;BME280;46421;48.610;9.334;2023-02-10T12:58:12;99998.47;;;15.69;22.61
60589;BME280;46421;48.610;9.334;2023-02-10T13:00:43;100000.16;;;14.47;24.31
60589;BME280;46421;48.610;9.334;2023-02-10T13:03:39;100007.09;;;15.20;23.99
60589;BME280;46421;48.610;9.334;2023-02-10T13:06:25;100002.66;;;13.38;25.14
60589;BME280;46421;48.610;9.334;2023-02-10T13:08:57;99999.00;;;11.01;28.44
60589;BME280;46421;48.610;9.334;2023-02-10T13:11:44;100004.78;;;11.06;28.58
60589;BME280;46421;48.610;9.334;2023-02-10T13:14:23;99998.50;;;10.65;28.87
60589;BME280;46421;48.610;9.334;2023-02-10T13:16:53;99993.34;;;10.19;30.48
60589;BME280;46421;48.610;9.334;2023-02-10T13:22:22;99995.91;;;10.96;30.00
60589;BME280;46421;48.610;9.334;2023-02-10T13:25:07;99993.84;;;10.13;30.75
60589;BME280;46421;48.610;9.334;2023-02-10T13:30:40;99979.28;;;11.03;28.67
60589;BME280;46421;48.610;9.334;2023-02-10T13:35:51;99968.13;;;10.46;30.83
60589;BME280;46421;48.610;9.334;2023-02-10T13:38:19;99982.59;;;9.65;31.34
60589;BME280;46421;48.610;9.334;2023-02-10T13:40:49;99978.88;;;9.57;31.76
60589;BME280;46421;48.610;9.334;2023-02-10T13:43:26;99977.06;;;9.12;32.97
60589;BME280;46421;48.610;9.334;2023-02-10T13:45:54;99970.31;;;8.25;34.36
60589;BME280;46421;48.610;9.334;2023-02-10T13:48:40;99977.84;;;7.20;35.66
60589;BME280;46421;48.610;9.334;2023-02-10T13:51:08;99985.03;;;7.18;36.43
60589;BME280;46421;48.610;9.334;2023-02-10T13:56:29;99989.19;;;7.22;36.46
60589;BME280;46421;48.610;9.334;2023-02-10T14:02:32;99994.78;;;7.04;37.44
60589;BME280;46421;48.610;9.334;2023-02-10T14:04:42;99987.47;;;6.69;37.29
60589;BME280;46421;48.610;9.334;2023-02-10T14:07:37;100003.06;;;6.33;41.29
60589;BME280;46421;48.610;9.334;2023-02-10T14:13:05;99999.13;;;5.70;40.08